createdAt,value
2018-11-26T07:51:03.055Z,49.40
2018-11-26T07:53:35.814Z,38.40
2018-11-26T07:56:34.313Z,55.43
2018-11-26T07:59:04.949Z,52.77
2018-11-26T08:01:36.316Z,46.63
2018-11-26T08:04:06.985Z,45.67
2018-11-26T08:06:37.055Z,51.87
2018-11-26T08:09:09.248Z,57.10
2018-11-26T08:11:46.781Z,53.33
2018-11-26T08:14:20.693Z,48.20
2018-11-26T08:16:51.332Z,50.70
2018-11-26T08:19:21.858Z,61.50
2018-11-26T08:21:52.287Z,61.47
2018-11-26T08:24:22.445Z,55.53
2018-11-26T08:26:52.469Z,54.03
2018-11-26T08:29:22.769Z,70.30
2018-11-26T08:31:53.338Z,86.27
2018-11-26T08:34:23.743Z,53.13
2018-11-26T08:36:59.085Z,100.03
2018-11-26T08:39:34.525Z,145.07
2018-11-26T08:42:09.416Z,146.77
2018-11-26T08:44:45.751Z,156.03
2018-11-26T08:47:19.199Z,183.03
2018-11-26T08:49:50.064Z,256.40
2018-11-26T08:52:21.159Z,181.77
2018-11-26T08:54:51.384Z,149.83
2018-11-26T08:57:21.774Z,152.00
2018-11-26T08:59:52.106Z,151.00
2018-11-26T09:02:26.956Z,128.17
2018-11-26T09:05:00.528Z,119.40
2018-11-26T09:07:31.014Z,100.73
2018-11-26T09:10:01.190Z,113.10
2018-11-26T09:12:32.136Z,76.50
2018-11-26T09:15:02.240Z,66.40
2018-11-26T09:17:32.307Z,61.30
2018-11-26T09:20:02.947Z,69.67
2018-11-26T09:22:33.198Z,76.07
2018-11-26T09:25:03.592Z,83.33
2018-11-26T09:27:34.268Z,87.33
2018-11-26T17:17:03.985Z,36.23
2018-11-26T17:19:34.250Z,40.30
2018-11-26T17:22:05.039Z,34.50
2018-11-26T17:24:35.753Z,40.13
2018-11-26T17:27:06.533Z,38.30
2018-11-26T17:29:37.376Z,36.80
2018-11-26T17:32:08.682Z,35.33
2018-11-26T17:34:38.892Z,41.43
2018-11-26T17:37:09.066Z,35.60
2018-11-26T17:39:40.702Z,33.13
2018-11-26T17:42:11.246Z,36.83
2018-11-26T17:44:41.615Z,37.47
2018-11-26T17:47:11.721Z,37.87
2018-11-26T17:49:41.774Z,37.87
2018-11-26T17:52:11.903Z,40.03
2018-11-26T17:54:42.161Z,37.97
2018-11-26T17:57:12.366Z,37.03
2018-11-26T17:59:42.662Z,38.23
2018-11-26T18:02:13.856Z,36.70
2018-11-26T18:04:44.126Z,36.23
2018-11-26T18:07:14.527Z,41.37
2018-11-26T18:09:47.939Z,39.40
2018-11-26T18:12:18.197Z,38.57
2018-11-26T18:14:48.646Z,39.67
2018-11-26T18:17:18.969Z,39.00
2018-11-26T18:19:49.607Z,37.97
2018-11-26T18:25:55.353Z,39.60
2018-11-26T18:28:25.568Z,40.57
2018-11-26T18:30:56.131Z,43.30
2018-11-26T18:33:26.813Z,40.10
2018-11-26T18:35:56.943Z,40.30
2018-11-26T18:38:27.492Z,40.27
2018-11-26T18:40:58.834Z,41.80
2018-11-26T18:43:28.919Z,41.53
2018-11-26T18:45:59.403Z,43.80
2018-11-26T18:48:29.565Z,39.80
2018-11-26T18:50:59.773Z,38.33
2018-11-26T18:53:41.800Z,37.53
2018-11-26T18:56:12.674Z,41.13
2018-11-26T18:58:43.100Z,41.07
2018-11-26T19:01:13.458Z,42.93
2018-11-26T19:03:43.806Z,38.80
2018-11-26T19:06:15.167Z,39.60
2018-11-26T19:08:45.572Z,44.20
2018-11-26T19:11:18.709Z,45.00
2018-11-26T19:14:24.908Z,45.47
2018-11-26T19:16:55.134Z,45.67
2018-11-26T19:19:25.596Z,43.23
2018-11-26T19:21:56.076Z,45.60
2018-11-26T19:24:26.593Z,45.00
2018-11-26T19:26:56.704Z,40.67
2018-11-26T19:29:27.320Z,42.10
2018-11-26T19:31:58.135Z,115.33
2018-11-26T19:34:28.987Z,133.57
2018-11-26T19:36:59.674Z,133.00
2018-11-26T19:39:30.173Z,61.93
2018-11-26T19:42:00.496Z,57.60
2018-11-26T19:44:30.617Z,56.93
2018-11-26T19:47:00.678Z,52.77
2018-11-26T19:49:31.274Z,57.47
2018-11-26T19:52:01.709Z,53.43
2018-11-26T19:54:32.202Z,49.00
2018-11-26T19:57:02.702Z,50.33
2018-11-26T19:59:33.018Z,50.37
2018-11-26T20:02:03.381Z,52.77
2018-11-26T20:04:38.009Z,53.43
2018-11-26T20:07:08.660Z,53.57
2018-11-26T20:09:39.201Z,56.23
2018-11-26T20:12:09.491Z,62.13
2018-11-26T20:14:39.862Z,59.87
2018-11-26T20:17:09.994Z,58.17
2018-11-26T20:19:40.388Z,59.50
2018-11-26T20:22:10.706Z,61.40
2018-11-26T20:24:41.008Z,64.37
2018-11-26T20:27:11.345Z,67.27
2018-11-26T20:29:41.422Z,67.50
2018-11-26T20:32:11.613Z,63.07
2018-11-26T20:34:41.876Z,63.80
2018-11-26T20:37:12.191Z,63.50
2018-11-26T20:39:42.366Z,64.97
2018-11-26T20:42:12.771Z,66.70
2018-11-26T20:44:43.227Z,61.80
2018-11-26T20:47:13.636Z,69.00
2018-11-26T20:49:44.095Z,66.47
2018-11-26T20:52:14.534Z,67.83
2018-11-26T20:54:44.983Z,62.73
2018-11-26T20:57:15.254Z,60.30
2018-11-26T20:59:45.354Z,63.63
2018-11-26T21:02:15.652Z,71.37
2018-11-26T21:04:45.933Z,63.13
2018-11-26T21:07:16.323Z,61.70
2018-11-26T21:09:47.044Z,65.67
2018-11-26T21:12:17.250Z,65.27
2018-11-26T21:14:47.503Z,70.10
2018-11-26T21:17:17.597Z,64.17
2018-11-26T21:19:49.733Z,64.23
2018-11-26T21:22:17.858Z,67.03
2018-11-26T21:24:48.173Z,70.63
2018-11-26T21:27:18.264Z,69.07
2018-11-26T21:29:48.356Z,71.53
2018-11-26T21:32:18.624Z,66.53
2018-11-26T21:34:49.033Z,68.40
2018-11-26T21:37:19.171Z,67.83
2018-11-26T21:39:49.479Z,71.50
2018-11-26T21:42:19.594Z,68.43
2018-11-26T21:44:50.242Z,71.67
2018-11-26T21:47:22.103Z,75.13
2018-11-26T21:49:53.160Z,82.17
2018-11-26T21:52:24.226Z,169.57
2018-11-26T21:54:54.444Z,138.63
2018-11-26T21:57:25.605Z,128.33
2018-11-26T21:59:56.233Z,119.13
2018-11-26T22:02:26.263Z,105.80
2018-11-26T22:04:56.907Z,109.17
2018-11-26T22:07:26.954Z,99.70
2018-11-26T22:09:57.295Z,135.80
2018-11-26T22:12:27.492Z,136.53
2018-11-26T22:14:57.989Z,164.93
2018-11-26T22:17:28.529Z,142.80
2018-11-26T22:19:58.681Z,159.00
2018-11-26T22:22:28.812Z,157.97
2018-11-26T22:24:58.994Z,180.47
2018-11-26T22:27:29.106Z,82.13
2018-11-26T22:29:59.361Z,78.83
2018-11-26T22:32:29.646Z,79.67
2018-11-26T22:34:59.818Z,78.20
2018-11-26T22:37:29.847Z,76.07
2018-11-26T22:39:59.967Z,75.00
2018-11-26T22:42:30.071Z,72.67
2018-11-26T22:45:00.415Z,67.80
2018-11-26T22:47:30.411Z,69.03
2018-11-26T22:50:00.686Z,71.60
2018-11-26T22:52:30.847Z,70.07
2018-11-26T22:55:01.059Z,70.20
2018-11-26T22:57:31.341Z,66.47
2018-11-26T23:00:02.333Z,63.97
2018-11-26T23:02:32.457Z,64.33
2018-11-26T23:05:02.679Z,67.67
2018-11-26T23:07:32.971Z,64.77
2018-11-26T23:10:03.399Z,65.50
2018-11-26T23:12:33.482Z,62.80
2018-11-26T23:15:03.539Z,68.53
2018-11-26T23:17:33.663Z,66.97
2018-11-26T23:20:03.631Z,73.80
2018-11-26T23:22:33.886Z,64.40
2018-11-26T23:25:05.028Z,71.03
2018-11-26T23:27:35.489Z,69.97
2018-11-26T23:30:09.251Z,64.67
2018-11-26T23:32:39.299Z,71.57
2018-11-26T23:35:09.741Z,69.23
2018-11-26T23:37:41.782Z,78.67
2018-11-26T23:40:13.642Z,70.67
2018-11-26T23:42:43.582Z,69.63
2018-11-26T23:45:17.870Z,71.10
2018-11-26T23:47:48.526Z,70.33
2018-11-26T23:50:18.722Z,68.60
2018-11-26T23:52:48.868Z,76.67
2018-11-26T23:55:19.894Z,74.63
2018-11-26T23:57:49.902Z,70.77
